Time;durP1;ratioP1;P1;durP2;ratioP2;P2;SDS_P1;SDS_P2;PMS_P1;PMS_P2;Temp;Humidity;BMP_temperature;BMP_pressure;BME280_temperature;BME280_humidity;BME280_pressure;Samples;Min_cycle;Max_cycle;Signal;HPM_P1;HPM_P2
2022/01/09 00:00:27;;;;;;;5.10;4.90;;;3.90;99.90;;;;;;5074953;28;20181;-65
2022/01/09 00:02:53;;;;;;;4.83;4.63;;;3.90;99.90;;;;;;5075842;28;20174;-65
2022/01/09 00:05:19;;;;;;;4.80;4.60;;;3.90;99.90;;;;;;5076988;28;20177;-65
2022/01/09 00:07:45;;;;;;;4.90;4.70;;;3.90;99.90;;;;;;5077573;28;20181;-65
2022/01/09 00:10:11;;;;;;;4.63;4.43;;;3.90;99.90;;;;;;5076905;28;20178;-65
2022/01/09 00:12:37;;;;;;;5.00;4.80;;;3.90;99.90;;;;;;5076703;28;20208;-65
2022/01/09 00:15:04;;;;;;;5.00;4.80;;;3.90;99.90;;;;;;5075529;28;20549;-66
2022/01/09 00:17:30;;;;;;;4.60;4.40;;;3.80;99.90;;;;;;5076506;28;20241;-65
2022/01/09 00:19:56;;;;;;;4.80;4.60;;;3.80;99.90;;;;;;5076735;28;20170;-66
2022/01/09 00:22:36;;;;;;;5.00;4.80;;;3.80;99.90;;;;;;5076581;28;20192;-66
2022/01/09 00:25:03;;;;;;;5.03;4.83;;;3.80;99.90;;;;;;5075251;28;20205;-65
2022/01/09 00:27:29;;;;;;;4.70;4.50;;;3.80;99.90;;;;;;5076453;28;20646;-65
2022/01/09 00:29:54;;;;;;;4.90;4.70;;;3.80;99.90;;;;;;5076569;28;20181;-65
2022/01/09 00:32:20;;;;;;;5.10;4.90;;;3.80;99.90;;;;;;5076390;28;20201;-65
2022/01/09 00:34:46;;;;;;;5.03;4.83;;;3.80;99.90;;;;;;5078570;28;20605;-64
2022/01/09 00:37:12;;;;;;;4.80;4.60;;;3.80;99.90;;;;;;5079899;28;20190;-65
2022/01/09 00:39:37;;;;;;;4.80;4.60;;;3.80;99.90;;;;;;5081951;28;20162;-65
2022/01/09 00:42:03;;;;;;;5.00;4.80;;;3.80;99.90;;;;;;5077548;28;20674;-65
2022/01/09 00:44:29;;;;;;;4.90;4.70;;;3.90;99.90;;;;;;5076358;28;20205;-65
2022/01/09 00:46:56;;;;;;;4.90;4.70;;;3.90;99.90;;;;;;5076676;28;20224;-65
2022/01/09 00:49:22;;;;;;;4.73;4.53;;;3.90;99.90;;;;;;5076389;28;20174;-65
2022/01/09 00:51:48;;;;;;;5.00;4.70;;;3.90;99.90;;;;;;5076092;28;20255;-66
2022/01/09 00:54:14;;;;;;;4.80;4.60;;;3.90;99.90;;;;;;5076155;28;20198;-65
2022/01/09 00:56:39;;;;;;;4.80;4.60;;;3.90;99.90;;;;;;5076212;28;20170;-65
2022/01/09 00:59:05;;;;;;;4.90;4.70;;;3.90;99.90;;;;;;5076336;28;20181;-65
2022/01/09 01:01:31;;;;;;;4.77;4.57;;;3.90;99.90;;;;;;5076043;28;20205;-65
2022/01/09 01:03:57;;;;;;;4.80;4.60;;;3.90;99.90;;;;;;5076015;28;20568;-65
2022/01/09 01:06:22;;;;;;;5.00;4.80;;;3.90;99.90;;;;;;5076064;28;20186;-65
2022/01/09 01:08:48;;;;;;;4.70;4.50;;;3.90;99.90;;;;;;5076038;28;20214;-65
2022/01/09 01:11:14;;;;;;;4.63;4.43;;;4.00;99.90;;;;;;5075371;28;20228;-65
2022/01/09 01:13:39;;;;;;;4.90;4.70;;;4.00;99.90;;;;;;5075821;28;20247;-65
2022/01/09 01:16:05;;;;;;;4.90;4.70;;;4.00;99.90;;;;;;5075706;28;20174;-65
2022/01/09 01:18:31;;;;;;;5.03;4.63;;;4.00;99.90;;;;;;5075784;28;20642;-65
2022/01/09 01:20:56;;;;;;;4.80;4.60;;;4.00;99.90;;;;;;5075495;28;20260;-65
2022/01/09 01:23:22;;;;;;;4.63;4.43;;;4.00;99.90;;;;;;5073976;28;20666;-65
2022/01/09 01:25:51;;;;;;;4.80;4.60;;;4.10;99.90;;;;;;5075201;28;20235;-65
2022/01/09 01:28:18;;;;;;;4.90;4.70;;;4.10;99.90;;;;;;5075718;28;20163;-65
2022/01/09 01:30:43;;;;;;;5.30;4.90;;;4.10;99.90;;;;;;5075510;28;20222;-65
2022/01/09 01:33:09;;;;;;;4.70;4.40;;;4.10;99.90;;;;;;5075053;28;20233;-66
2022/01/09 01:35:35;;;;;;;4.60;4.40;;;4.10;99.90;;;;;;5073962;28;20197;-65
2022/01/09 01:38:01;;;;;;;4.87;4.67;;;4.10;99.90;;;;;;5075499;28;20650;-65
2022/01/09 01:40:27;;;;;;;4.67;4.47;;;4.10;99.90;;;;;;5073874;28;20559;-65
2022/01/09 01:42:52;;;;;;;4.60;4.40;;;4.10;99.90;;;;;;5075049;28;20181;-65
2022/01/09 01:45:18;;;;;;;4.70;4.50;;;4.10;99.90;;;;;;5075032;28;20256;-65
2022/01/09 01:47:44;;;;;;;4.60;4.40;;;4.00;99.90;;;;;;5073641;28;20600;-65
2022/01/09 01:50:13;;;;;;;4.70;4.50;;;4.10;99.90;;;;;;5075599;28;20185;-65
2022/01/09 01:52:43;;;;;;;4.90;4.70;;;4.10;99.90;;;;;;5075019;28;20204;-65
2022/01/09 01:55:12;;;;;;;4.73;4.53;;;4.10;99.90;;;;;;5073646;28;20673;-65
2022/01/09 01:57:40;;;;;;;5.17;4.80;;;4.10;99.90;;;;;;5074815;28;20547;-65
2022/01/09 02:00:09;;;;;;;4.70;4.50;;;4.00;99.90;;;;;;5075362;28;20174;-65
2022/01/09 02:02:35;;;;;;;4.63;4.43;;;4.10;99.90;;;;;;5074665;28;20173;-65
2022/01/09 02:05:04;;;;;;;4.70;4.50;;;4.00;99.90;;;;;;5074491;28;20202;-65
2022/01/09 02:07:30;;;;;;;5.00;4.80;;;4.00;99.90;;;;;;5074550;28;20182;-65
2022/01/09 02:09:56;;;;;;;4.80;4.60;;;4.00;99.90;;;;;;5074470;28;20184;-65
2022/01/09 02:12:22;;;;;;;4.60;4.40;;;4.00;99.90;;;;;;5074839;28;20225;-65
2022/01/09 02:14:48;;;;;;;4.70;4.50;;;4.00;99.90;;;;;;5073007;28;20204;-65
2022/01/09 02:17:19;;;;;;;4.67;4.47;;;3.90;99.90;;;;;;5074261;28;20174;-65
2022/01/09 02:20:04;;;;;;;4.60;4.40;;;3.90;99.90;;;;;;5074599;28;20181;-65
2022/01/09 02:22:33;;;;;;;5.13;4.93;;;3.90;99.90;;;;;;5073816;28;20158;-65
2022/01/09 02:24:59;;;;;;;5.03;4.83;;;3.80;99.90;;;;;;5072885;28;20210;-65
2022/01/09 02:27:25;;;;;;;5.10;4.90;;;3.80;99.90;;;;;;5074187;28;20193;-65
2022/01/09 02:29:51;;;;;;;4.70;4.50;;;3.80;99.90;;;;;;5074669;28;20493;-65
2022/01/09 02:32:17;;;;;;;5.43;5.13;;;3.70;99.90;;;;;;5072641;28;20208;-65
2022/01/09 02:34:47;;;;;;;5.00;4.80;;;3.70;99.90;;;;;;5073948;28;20310;-65
2022/01/09 02:37:13;;;;;;;4.80;4.60;;;3.70;99.90;;;;;;5073881;28;20170;-65
2022/01/09 02:39:39;;;;;;;4.90;4.70;;;3.60;99.90;;;;;;5074202;28;20252;-65
2022/01/09 02:42:16;;;;;;;4.80;4.60;;;3.60;99.90;;;;;;5073876;28;20528;-65
2022/01/09 02:44:42;;;;;;;4.80;4.60;;;3.50;99.90;;;;;;5073850;28;20206;-65
2022/01/09 02:47:07;;;;;;;4.77;4.57;;;3.40;99.90;;;;;;5073866;28;20178;-66
2022/01/09 02:49:33;;;;;;;5.00;4.80;;;3.40;99.90;;;;;;5073693;28;20584;-65
2022/01/09 02:52:04;;;;;;;4.83;4.63;;;3.30;99.90;;;;;;5073588;28;20281;-65
2022/01/09 02:57:14;;;;;;;4.80;4.60;;;3.20;99.90;;;;;;5074283;28;20525;-66
2022/01/09 02:59:40;;;;;;;4.70;4.50;;;3.20;99.90;;;;;;5073625;28;20177;-65
2022/01/09 03:02:05;;;;;;;4.97;4.77;;;3.20;99.90;;;;;;5073640;28;20174;-65
2022/01/09 03:04:31;;;;;;;4.97;4.77;;;3.10;99.90;;;;;;5073584;28;20624;-65
2022/01/09 03:06:57;;;;;;;4.90;4.70;;;3.10;99.90;;;;;;5073531;28;20177;-66
2022/01/09 03:09:22;;;;;;;5.10;4.90;;;3.10;99.90;;;;;;5074058;28;20174;-65
2022/01/09 03:11:50;;;;;;;5.23;4.93;;;3.10;99.90;;;;;;5073492;28;20563;-65
2022/01/09 03:14:16;;;;;;;5.10;4.90;;;3.00;99.90;;;;;;5073777;28;20192;-65
2022/01/09 03:16:41;;;;;;;5.20;4.90;;;3.00;99.90;;;;;;5073578;28;20182;-66
2022/01/09 03:19:07;;;;;;;5.00;4.80;;;3.00;99.90;;;;;;5073545;28;20169;-65
2022/01/09 03:21:33;;;;;;;4.73;4.53;;;3.00;99.90;;;;;;5073576;28;20189;-65
2022/01/09 03:23:58;;;;;;;4.97;4.67;;;3.00;99.90;;;;;;5072108;28;20201;-66
2022/01/09 03:26:24;;;;;;;5.10;4.80;;;3.00;99.90;;;;;;5073462;28;20217;-66
2022/01/09 03:28:50;;;;;;;5.37;4.93;;;3.00;99.90;;;;;;5073405;28;20217;-66
2022/01/09 03:31:16;;;;;;;4.90;4.70;;;3.00;99.90;;;;;;5072001;28;20185;-65
2022/01/09 03:33:41;;;;;;;5.40;5.10;;;3.00;99.90;;;;;;5074582;28;20672;-65
2022/01/09 03:36:07;;;;;;;4.97;4.70;;;2.90;99.90;;;;;;5079952;28;20230;-66
2022/01/09 03:38:33;;;;;;;4.90;4.70;;;2.90;99.90;;;;;;5080385;28;20170;-66
2022/01/09 03:40:58;;;;;;;5.10;4.90;;;2.90;99.90;;;;;;5080148;28;20170;-66
2022/01/09 03:43:24;;;;;;;5.10;4.90;;;3.00;99.90;;;;;;5079935;28;20339;-66
2022/01/09 03:45:50;;;;;;;5.33;5.03;;;3.00;99.90;;;;;;5079942;28;20178;-65
2022/01/09 03:48:16;;;;;;;5.63;5.33;;;3.00;99.90;;;;;;5080318;28;20189;-65
2022/01/09 03:50:49;;;;;;;5.40;5.10;;;3.00;99.90;;;;;;5079957;28;20188;-66
2022/01/09 03:53:15;;;;;;;5.60;5.30;;;3.00;99.90;;;;;;5079755;28;20210;-66
2022/01/09 03:55:41;;;;;;;6.00;5.60;;;3.10;99.90;;;;;;5079778;28;20545;-66
2022/01/09 03:58:06;;;;;;;6.30;5.90;;;3.10;99.90;;;;;;5079745;28;20182;-66
2022/01/09 04:00:32;;;;;;;6.10;5.70;;;3.10;99.90;;;;;;5079643;28;20174;-65
2022/01/09 04:02:58;;;;;;;6.47;5.97;;;3.10;99.90;;;;;;5079624;28;20182;-66
2022/01/09 04:05:24;;;;;;;7.03;6.43;;;3.10;99.90;;;;;;5079670;28;20577;-66
2022/01/09 04:07:50;;;;;;;7.13;6.60;;;3.20;99.90;;;;;;5079946;28;20177;-66
2022/01/09 04:10:18;;;;;;;7.43;6.83;;;3.20;99.90;;;;;;5080092;28;20177;-66
2022/01/09 04:12:49;;;;;;;7.67;6.97;;;3.20;99.90;;;;;;5079409;28;20658;-64
2022/01/09 04:15:16;;;;;;;7.87;7.23;;;3.30;99.90;;;;;;5078387;28;20299;-64
2022/01/09 04:17:58;;;;;;;7.87;7.17;;;3.40;99.90;;;;;;5079817;28;20539;-64
2022/01/09 04:20:33;;;;;;;7.33;6.67;;;3.60;99.90;;;;;;5078167;28;20174;-64
2022/01/09 04:23:00;;;;;;;7.03;6.43;;;3.60;99.90;;;;;;5078459;28;20187;-64
2022/01/09 04:25:26;;;;;;;6.90;6.23;;;3.70;99.90;;;;;;5079388;28;20185;-64
2022/01/09 04:27:52;;;;;;;6.33;5.73;;;3.60;99.90;;;;;;5079316;28;20272;-64
2022/01/09 04:30:18;;;;;;;5.63;5.23;;;3.60;99.90;;;;;;5078170;28;20216;-64
2022/01/09 04:32:44;;;;;;;5.77;5.30;;;3.60;99.90;;;;;;5078070;28;20220;-64
2022/01/09 04:35:11;;;;;;;5.77;5.27;;;3.60;99.90;;;;;;5079374;28;20205;-63
2022/01/09 04:37:37;;;;;;;5.67;5.30;;;3.50;99.90;;;;;;5079302;28;20551;-64
2022/01/09 04:40:05;;;;;;;5.50;5.10;;;3.50;99.90;;;;;;5079295;28;20174;-65
2022/01/09 04:42:44;;;;;;;6.20;5.67;;;3.50;99.90;;;;;;5078081;28;20268;-65
2022/01/09 04:45:11;;;;;;;6.07;5.53;;;3.50;99.90;;;;;;5078655;28;20204;-64
2022/01/09 04:47:40;;;;;;;7.87;5.53;;;3.50;99.90;;;;;;5074635;28;20247;-64
2022/01/09 04:50:07;;;;;;;7.60;5.87;;;3.60;99.90;;;;;;5076084;28;20208;-64
2022/01/09 04:52:37;;;;;;;8.73;5.63;;;3.60;99.90;;;;;;5074850;28;20225;-64
2022/01/09 04:55:02;;;;;;;6.40;5.40;;;3.70;99.90;;;;;;5075778;28;20244;-65
2022/01/09 04:57:28;;;;;;;7.67;4.97;;;3.70;99.90;;;;;;5076438;28;20627;-65
2022/01/09 04:59:54;;;;;;;8.87;5.07;;;3.80;99.90;;;;;;5076190;28;20254;-64
2022/01/09 05:02:20;;;;;;;6.27;5.00;;;3.80;99.90;;;;;;5074648;28;20217;-64
2022/01/09 05:04:45;;;;;;;5.43;4.97;;;3.80;99.90;;;;;;5075844;28;20666;-64
2022/01/09 05:07:11;;;;;;;6.80;5.40;;;3.80;99.90;;;;;;5076161;28;20200;-65
2022/01/09 05:09:37;;;;;;;6.00;5.50;;;3.80;99.90;;;;;;5076146;28;20252;-64
2022/01/09 05:12:03;;;;;;;5.93;5.20;;;3.90;99.90;;;;;;5077097;28;20202;-64
2022/01/09 05:14:28;;;;;;;8.00;5.63;;;3.90;99.90;;;;;;5076973;28;20196;-64
2022/01/09 05:16:54;;;;;;;7.40;5.73;;;3.90;99.90;;;;;;5077396;28;20170;-64
2022/01/09 05:19:22;;;;;;;8.83;6.43;;;3.90;99.90;;;;;;5075929;28;20169;-64
2022/01/09 05:21:49;;;;;;;9.07;6.83;;;4.00;99.90;;;;;;5075609;28;20608;-64
2022/01/09 05:24:16;;;;;;;10.97;7.10;;;4.00;99.90;;;;;;5075449;28;20196;-64
2022/01/09 05:26:41;;;;;;;9.83;7.13;;;4.10;99.90;;;;;;5075479;28;20197;-64
2022/01/09 05:29:07;;;;;;;9.07;7.43;;;4.10;99.90;;;;;;5075466;28;20256;-64
2022/01/09 05:31:33;;;;;;;13.67;8.00;;;4.10;99.90;;;;;;5075226;28;20181;-64
2022/01/09 05:33:59;;;;;;;13.10;7.87;;;4.10;99.90;;;;;;5075386;28;20189;-64
2022/01/09 05:36:24;;;;;;;15.13;7.57;;;4.10;99.90;;;;;;5075267;28;20643;-64
2022/01/09 05:38:50;;;;;;;12.90;7.93;;;4.10;99.90;;;;;;5074008;28;20260;-64
2022/01/09 05:41:16;;;;;;;12.90;7.47;;;4.10;99.90;;;;;;5075434;28;20166;-64
2022/01/09 05:43:41;;;;;;;21.47;8.20;;;4.10;99.90;;;;;;5073815;28;20563;-65
2022/01/09 05:46:07;;;;;;;19.03;8.67;;;4.20;99.90;;;;;;5075035;28;20227;-64
2022/01/09 05:48:33;;;;;;;17.93;10.37;;;4.20;99.90;;;;;;5073784;28;20177;-64
2022/01/09 05:50:59;;;;;;;21.37;10.67;;;4.30;99.90;;;;;;5074958;28;20170;-65
2022/01/09 05:53:25;;;;;;;24.53;10.67;;;4.40;99.90;;;;;;5073447;28;20262;-64
2022/01/09 05:55:50;;;;;;;36.23;11.83;;;4.40;99.90;;;;;;5074762;28;20248;-64
2022/01/09 05:58:16;;;;;;;34.50;11.37;;;4.50;99.90;;;;;;5073606;28;20174;-64
2022/01/09 06:00:42;;;;;;;35.77;12.77;;;4.60;99.90;;;;;;5075196;28;20174;-63
2022/01/09 06:03:08;;;;;;;34.77;10.93;;;4.70;99.90;;;;;;5074387;28;20193;-64
2022/01/09 06:05:33;;;;;;;22.87;11.37;;;4.70;99.90;;;;;;5074723;28;20204;-63
2022/01/09 06:07:59;;;;;;;15.47;8.87;;;4.70;99.90;;;;;;5073164;28;20178;-64
2022/01/09 06:10:25;;;;;;;27.57;11.60;;;4.70;99.90;;;;;;5074511;28;20223;-64
2022/01/09 06:12:50;;;;;;;19.63;9.67;;;4.70;99.90;;;;;;5074293;28;20186;-63
2022/01/09 06:15:16;;;;;;;21.70;9.73;;;4.70;99.90;;;;;;5074283;28;20654;-65
2022/01/09 06:17:43;;;;;;;23.10;9.37;;;4.60;99.90;;;;;;5074280;28;20548;-64
2022/01/09 06:20:11;;;;;;;20.53;9.00;;;4.60;99.90;;;;;;5074359;28;20170;-64
2022/01/09 06:22:37;;;;;;;29.90;9.30;;;4.60;99.90;;;;;;5074345;28;20182;-64
2022/01/09 06:25:04;;;;;;;21.53;8.37;;;4.60;99.90;;;;;;5074161;28;20194;-64
2022/01/09 06:27:29;;;;;;;18.07;8.40;;;4.50;99.90;;;;;;5072807;28;20307;-64
2022/01/09 06:29:55;;;;;;;17.53;9.03;;;4.50;99.90;;;;;;5074518;28;20293;-63
2022/01/09 06:32:21;;;;;;;27.40;8.13;;;4.50;99.90;;;;;;5074632;28;20202;-64
2022/01/09 06:34:47;;;;;;;13.00;7.63;;;4.50;99.90;;;;;;5079397;28;20200;-64
2022/01/09 06:37:12;;;;;;;16.67;7.40;;;4.40;99.90;;;;;;5085868;28;20174;-65
2022/01/09 06:39:39;;;;;;;10.63;6.57;;;4.40;99.90;;;;;;5087585;28;20188;-64
2022/01/09 06:42:05;;;;;;;10.10;6.20;;;4.30;99.90;;;;;;5075642;28;20590;-64
2022/01/09 06:44:31;;;;;;;13.37;6.63;;;4.20;99.90;;;;;;5075020;28;20263;-63
2022/01/09 06:46:57;;;;;;;8.17;5.47;;;4.10;99.90;;;;;;5072732;28;20174;-63
2022/01/09 06:49:23;;;;;;;7.67;6.13;;;4.00;99.90;;;;;;5074176;28;20202;-64
2022/01/09 06:51:49;;;;;;;6.83;6.17;;;3.90;99.90;;;;;;5073740;28;20266;-63
2022/01/09 06:54:14;;;;;;;9.83;7.30;;;3.80;99.90;;;;;;5073846;28;20268;-63
2022/01/09 06:56:41;;;;;;;13.70;8.93;;;3.80;99.90;;;;;;5072446;28;20176;-64
2022/01/09 06:59:07;;;;;;;15.67;9.60;;;3.90;99.90;;;;;;5074047;28;20177;-64
2022/01/09 07:01:33;;;;;;;18.73;9.40;;;3.90;99.90;;;;;;5073650;28;20174;-64
2022/01/09 07:03:59;;;;;;;18.10;10.67;;;3.90;99.90;;;;;;5072217;28;20196;-64
2022/01/09 07:06:24;;;;;;;13.70;10.93;;;3.90;99.90;;;;;;5073547;28;20170;-64
2022/01/09 07:08:50;;;;;;;18.77;10.87;;;3.90;99.90;;;;;;5073520;28;20174;-64
2022/01/09 07:11:16;;;;;;;29.80;11.37;;;3.90;99.90;;;;;;5072193;28;20215;-64
2022/01/09 07:13:42;;;;;;;23.13;12.70;;;4.00;99.90;;;;;;5073392;28;20252;-64
2022/01/09 07:16:08;;;;;;;23.50;11.67;;;4.10;99.90;;;;;;5073446;28;20239;-64
2022/01/09 07:18:33;;;;;;;30.53;13.00;;;4.20;99.90;;;;;;5073765;28;20630;-64
2022/01/09 07:20:59;;;;;;;28.23;11.87;;;4.20;99.90;;;;;;5072077;28;20174;-64
2022/01/09 07:23:25;;;;;;;29.83;12.70;;;4.20;99.90;;;;;;5073387;28;20201;-64
2022/01/09 07:25:51;;;;;;;26.03;12.03;;;4.30;99.90;;;;;;5073484;28;20209;-64
2022/01/09 07:28:18;;;;;;;25.13;11.70;;;4.30;99.90;;;;;;5073950;28;20170;-64
2022/01/09 07:30:44;;;;;;;27.43;11.63;;;4.30;99.90;;;;;;5073611;28;20173;-64
2022/01/09 07:33:10;;;;;;;22.93;11.73;;;4.40;99.90;;;;;;5073306;28;20205;-64
2022/01/09 07:35:35;;;;;;;25.83;12.50;;;4.40;99.90;;;;;;5073732;28;20529;-66
2022/01/09 07:38:01;;;;;;;27.17;12.57;;;4.40;99.90;;;;;;5073562;28;20178;-64
2022/01/09 07:40:28;;;;;;;18.07;11.97;;;4.30;99.90;;;;;;5073392;28;20166;-65
2022/01/09 07:42:54;;;;;;;22.23;13.20;;;4.30;99.90;;;;;;5071798;28;20204;-65
2022/01/09 07:45:24;;;;;;;24.17;12.47;;;4.30;99.90;;;;;;5073182;28;20638;-66
2022/01/09 07:47:54;;;;;;;22.50;12.33;;;4.40;99.90;;;;;;5071884;28;20186;-66
2022/01/09 07:50:20;;;;;;;29.00;12.20;;;4.40;99.90;;;;;;5073519;28;20158;-66
2022/01/09 07:52:46;;;;;;;23.93;12.00;;;4.30;99.90;;;;;;5072983;28;20666;-65
2022/01/09 07:55:12;;;;;;;23.90;12.37;;;4.30;99.90;;;;;;5073238;28;20174;-65
2022/01/09 07:57:38;;;;;;;31.93;12.23;;;4.30;99.90;;;;;;5073411;28;20166;-66
2022/01/09 08:00:06;;;;;;;28.10;12.47;;;4.30;99.90;;;;;;5073085;28;20537;-65
2022/01/09 08:02:32;;;;;;;16.63;10.37;;;4.30;99.90;;;;;;5071665;28;20650;-66
2022/01/09 08:04:58;;;;;;;21.60;10.23;;;4.30;99.90;;;;;;5072372;28;20202;-65
2022/01/09 08:07:23;;;;;;;24.60;10.93;;;4.30;99.90;;;;;;5072977;28;20173;-65
2022/01/09 08:09:49;;;;;;;26.17;11.20;;;4.30;99.90;;;;;;5072955;28;20185;-65
2022/01/09 08:12:15;;;;;;;24.67;11.20;;;4.30;99.90;;;;;;5071581;28;20291;-65
2022/01/09 08:14:42;;;;;;;15.80;10.77;;;4.30;99.90;;;;;;5071563;28;20198;-65
2022/01/09 08:17:08;;;;;;;22.47;11.70;;;4.30;99.90;;;;;;5073327;28;20615;-65
2022/01/09 08:19:35;;;;;;;21.07;11.67;;;4.30;99.90;;;;;;5071688;28;20178;-66
2022/01/09 08:22:05;;;;;;;23.43;12.00;;;4.30;99.90;;;;;;5075782;28;20211;-66
2022/01/09 08:24:32;;;;;;;21.83;11.40;;;4.30;99.90;;;;;;5076644;28;20708;-66
2022/01/09 08:26:58;;;;;;;20.83;10.60;;;4.30;99.90;;;;;;5076550;28;20195;-65
2022/01/09 08:29:24;;;;;;;17.47;11.40;;;4.20;99.90;;;;;;5076566;28;20239;-65
2022/01/09 08:31:50;;;;;;;21.07;11.53;;;4.30;99.90;;;;;;5076415;28;20683;-65
2022/01/09 08:34:16;;;;;;;17.30;11.63;;;4.40;99.90;;;;;;5076569;28;20194;-64
2022/01/09 08:36:41;;;;;;;18.57;11.17;;;4.40;99.90;;;;;;5076603;28;20178;-63
2022/01/09 08:39:07;;;;;;;20.43;11.10;;;4.50;99.90;;;;;;5076382;28;20173;-64
2022/01/09 08:41:34;;;;;;;20.93;11.20;;;4.40;99.90;;;;;;5076548;28;20219;-63
2022/01/09 08:44:04;;;;;;;22.77;10.63;;;4.50;99.90;;;;;;5075568;28;20205;-63
2022/01/09 08:46:32;;;;;;;20.43;10.77;;;4.50;99.90;;;;;;5075681;28;20298;-67
2022/01/09 08:48:58;;;;;;;21.60;10.43;;;4.40;99.90;;;;;;5076466;28;20164;-66
2022/01/09 08:51:24;;;;;;;20.00;10.77;;;4.40;99.90;;;;;;5076106;28;20166;-67
2022/01/09 08:53:53;;;;;;;22.53;10.43;;;4.40;99.90;;;;;;5076037;28;20197;-67
2022/01/09 08:56:20;;;;;;;30.93;11.40;;;4.40;99.90;;;;;;5074693;28;20586;-67
2022/01/09 08:58:47;;;;;;;22.97;9.70;;;4.40;99.90;;;;;;5076099;28;20206;-67
2022/01/09 09:01:13;;;;;;;16.60;10.43;;;4.40;99.90;;;;;;5074836;28;20269;-67
2022/01/09 09:03:41;;;;;;;20.60;10.03;;;4.40;99.90;;;;;;5075010;28;20221;-65
2022/01/09 09:06:15;;;;;;;16.13;10.33;;;4.40;99.90;;;;;;5075881;28;20204;-65
2022/01/09 09:08:42;;;;;;;18.80;10.40;;;4.40;99.90;;;;;;5076074;28;20162;-67
2022/01/09 09:11:09;;;;;;;13.30;9.47;;;4.40;99.90;;;;;;5076278;28;20248;-65
2022/01/09 09:13:35;;;;;;;18.33;10.53;;;4.40;99.90;;;;;;5076212;28;20232;-65
2022/01/09 09:16:02;;;;;;;15.50;10.50;;;4.40;99.90;;;;;;5075640;28;20170;-65
2022/01/09 09:18:28;;;;;;;19.17;9.97;;;4.50;99.90;;;;;;5075903;28;20600;-65
2022/01/09 09:20:53;;;;;;;21.30;10.20;;;4.50;99.90;;;;;;5074372;28;20249;-65
2022/01/09 09:23:19;;;;;;;16.67;10.27;;;4.50;99.90;;;;;;5075724;28;20673;-65
2022/01/09 09:25:46;;;;;;;19.70;10.33;;;4.50;99.90;;;;;;5074093;28;20584;-65
2022/01/09 09:28:12;;;;;;;16.20;10.10;;;4.50;99.90;;;;;;5074235;28;20541;-64
2022/01/09 09:30:38;;;;;;;25.83;10.40;;;4.50;99.90;;;;;;5075488;28;20170;-65
2022/01/09 09:33:05;;;;;;;21.43;11.67;;;4.50;99.90;;;;;;5073740;28;20262;-65
2022/01/09 09:35:32;;;;;;;15.30;10.07;;;4.50;99.90;;;;;;5074107;28;20574;-64
2022/01/09 09:37:58;;;;;;;20.07;9.97;;;4.50;99.90;;;;;;5075343;28;20657;-65
2022/01/09 09:40:27;;;;;;;19.50;9.23;;;4.60;99.90;;;;;;5075346;28;20231;-64
2022/01/09 09:42:54;;;;;;;24.80;10.73;;;4.60;99.90;;;;;;5075421;28;20177;-65
2022/01/09 09:45:23;;;;;;;20.70;9.83;;;4.60;99.90;;;;;;5073847;28;20646;-65
2022/01/09 09:47:49;;;;;;;18.83;11.10;;;4.60;99.90;;;;;;5075372;28;20180;-65
2022/01/09 09:50:16;;;;;;;12.27;8.50;;;4.70;99.90;;;;;;5075002;28;20170;-64
2022/01/09 09:52:43;;;;;;;19.97;9.03;;;4.70;99.90;;;;;;5074901;28;20204;-66
2022/01/09 09:55:10;;;;;;;14.43;9.27;;;4.70;99.90;;;;;;5073917;28;20548;-65
2022/01/09 09:57:35;;;;;;;21.63;9.93;;;4.70;99.90;;;;;;5073663;28;20178;-65
2022/01/09 10:00:07;;;;;;;22.40;10.23;;;4.70;99.90;;;;;;5073816;28;20230;-65
2022/01/09 10:02:57;;;;;;;17.40;8.90;;;4.70;99.90;;;;;;5075392;28;20170;-65
2022/01/09 10:05:34;;;;;;;16.47;9.90;;;4.70;99.90;;;;;;5073557;28;20560;-65
2022/01/09 10:08:15;;;;;;;23.53;10.13;;;4.70;99.90;;;;;;5074974;28;20165;-65
2022/01/09 10:10:42;;;;;;;14.87;9.53;;;4.70;99.90;;;;;;5074978;28;20158;-65
2022/01/09 10:13:13;;;;;;;13.93;10.00;;;4.70;99.90;;;;;;5074709;28;20205;-65
2022/01/09 10:15:47;;;;;;;19.53;8.97;;;4.70;99.90;;;;;;5074696;28;20611;-65
2022/01/09 10:18:13;;;;;;;13.23;9.70;;;4.70;99.90;;;;;;5074440;28;20534;-65
2022/01/09 10:20:39;;;;;;;18.17;10.23;;;4.70;99.90;;;;;;5074388;28;20630;-65
2022/01/09 10:23:06;;;;;;;16.57;10.17;;;4.80;99.90;;;;;;5074289;28;20258;-65
2022/01/09 10:25:39;;;;;;;20.10;10.03;;;4.80;99.90;;;;;;5072846;28;20216;-65
2022/01/09 10:28:08;;;;;;;20.50;10.27;;;4.80;99.90;;;;;;5074225;28;20170;-64
2022/01/09 10:30:39;;;;;;;15.27;9.90;;;4.80;99.90;;;;;;5074339;28;20643;-64
2022/01/09 10:33:14;;;;;;;19.80;10.40;;;4.80;99.90;;;;;;5072761;28;20296;-65
2022/01/09 10:35:43;;;;;;;17.43;10.23;;;4.80;99.90;;;;;;5074431;28;20157;-65
2022/01/09 10:38:13;;;;;;;19.13;9.97;;;4.80;99.90;;;;;;5074157;28;20574;-65
2022/01/09 10:40:42;;;;;;;13.77;9.83;;;4.90;99.90;;;;;;5074040;28;20193;-65
2022/01/09 10:43:20;;;;;;;16.63;10.30;;;4.90;99.90;;;;;;5073388;28;20308;-65
2022/01/09 10:46:02;;;;;;;17.83;10.67;;;4.80;99.90;;;;;;5074202;28;20520;-65
2022/01/09 10:48:39;;;;;;;16.63;10.20;;;4.90;99.90;;;;;;5074226;28;20162;-65
2022/01/09 10:51:09;;;;;;;14.70;10.33;;;4.90;99.90;;;;;;5072533;28;20173;-65
2022/01/09 10:53:36;;;;;;;19.40;9.90;;;4.90;99.90;;;;;;5073674;28;20216;-65
2022/01/09 10:56:15;;;;;;;13.23;9.97;;;4.90;99.90;;;;;;5074141;28;20165;-65
2022/01/09 10:58:52;;;;;;;15.37;10.93;;;4.90;99.90;;;;;;5073756;28;20149;-65
2022/01/09 11:01:23;;;;;;;18.33;11.07;;;4.90;99.90;;;;;;5073806;28;20642;-65
2022/01/09 11:03:55;;;;;;;18.03;10.33;;;4.90;99.90;;;;;;5073569;28;20327;-64
2022/01/09 11:06:23;;;;;;;16.67;11.13;;;4.90;99.90;;;;;;5073830;28;20677;-65
2022/01/09 11:08:50;;;;;;;15.97;10.63;;;4.90;99.90;;;;;;5074003;28;20170;-65
2022/01/09 11:13:47;;;;;;;16.60;10.13;;;4.90;99.90;;;;;;5073626;28;20205;-64
2022/01/09 11:16:33;;;;;;;18.07;10.17;;;4.90;99.90;;;;;;5072750;28;20660;-65
2022/01/09 11:19:06;;;;;;;20.97;10.10;;;4.90;99.90;;;;;;5073753;28;20641;-64
2022/01/09 11:21:33;;;;;;;15.47;10.23;;;4.90;99.90;;;;;;5072293;28;20549;-64
2022/01/09 11:24:35;;;;;;;17.83;11.17;;;4.90;99.90;;;;;;5073639;28;20190;-64
2022/01/09 11:27:06;;;;;;;17.33;10.80;;;5.00;99.90;;;;;;5072404;28;20212;-64
2022/01/09 11:29:49;;;;;;;15.37;10.20;;;5.00;99.90;;;;;;5072724;28;20178;-64
2022/01/09 11:32:24;;;;;;;20.03;10.50;;;5.00;99.90;;;;;;5072505;28;20193;-64
2022/01/09 11:35:11;;;;;;;13.13;9.90;;;5.00;99.90;;;;;;5072077;28;20713;-64
2022/01/09 11:37:58;;;;;;;18.60;10.10;;;5.10;99.90;;;;;;5073338;28;20170;-65
2022/01/09 11:40:29;;;;;;;17.20;10.27;;;5.10;99.90;;;;;;5073553;28;20173;-65
2022/01/09 11:43:15;;;;;;;16.17;9.90;;;5.10;99.90;;;;;;5071969;28;20197;-65
2022/01/09 11:45:42;;;;;;;17.73;10.67;;;5.10;99.90;;;;;;5073506;28;20158;-65
2022/01/09 11:48:08;;;;;;;21.70;11.10;;;5.10;99.90;;;;;;5073179;28;20186;-64
2022/01/09 11:50:36;;;;;;;16.93;10.90;;;5.20;99.90;;;;;;5073116;28;20248;-64
2022/01/09 11:53:03;;;;;;;13.83;9.70;;;5.30;99.90;;;;;;5073006;28;20737;-65
2022/01/09 11:55:43;;;;;;;12.47;10.10;;;5.40;99.90;;;;;;5074964;28;20193;-64
2022/01/09 11:58:10;;;;;;;18.77;11.60;;;5.40;99.90;;;;;;5075761;28;20181;-65
2022/01/09 12:00:39;;;;;;;17.47;9.87;;;5.50;99.90;;;;;;5077034;28;20253;-65
2022/01/09 12:03:35;;;;;;;16.57;9.60;;;5.50;99.90;;;;;;5077354;28;20221;-65
2022/01/09 12:06:09;;;;;;;15.47;10.30;;;5.40;99.90;;;;;;5075439;28;20218;-65
2022/01/09 12:08:53;;;;;;;12.30;9.47;;;5.40;99.90;;;;;;5077627;28;20189;-64
2022/01/09 12:11:19;;;;;;;12.00;8.90;;;5.40;99.90;;;;;;5076820;28;20196;-65
2022/01/09 12:13:47;;;;;;;13.50;8.97;;;5.30;99.90;;;;;;5076631;28;20209;-64
2022/01/09 12:16:50;;;;;;;18.03;9.10;;;5.30;99.90;;;;;;5076727;28;20173;-64
2022/01/09 12:20:05;;;;;;;11.63;9.13;;;5.30;99.90;;;;;;5076695;28;20177;-64
2022/01/09 12:22:47;;;;;;;12.00;9.00;;;5.30;99.90;;;;;;5076359;28;20183;-65
2022/01/09 12:25:22;;;;;;;13.63;8.57;;;5.20;99.90;;;;;;5077460;28;20276;-66
2022/01/09 12:28:18;;;;;;;14.17;9.40;;;5.20;99.90;;;;;;5076556;28;20270;-66
2022/01/09 12:30:48;;;;;;;13.57;9.90;;;5.20;99.90;;;;;;5076050;28;20197;-65
2022/01/09 12:33:25;;;;;;;13.53;9.33;;;5.10;99.90;;;;;;5076414;28;20231;-66
2022/01/09 12:36:06;;;;;;;17.57;9.33;;;5.10;99.90;;;;;;5076511;28;20166;-66
2022/01/09 12:38:37;;;;;;;19.37;9.20;;;5.10;99.90;;;;;;5076705;28;20157;-66
2022/01/09 12:41:10;;;;;;;21.10;10.27;;;5.10;99.90;;;;;;5076435;28;20610;-66
2022/01/09 12:43:38;;;;;;;13.17;9.60;;;5.10;99.90;;;;;;5076378;28;20198;-66
2022/01/09 12:46:17;;;;;;;13.13;9.40;;;5.10;99.90;;;;;;5076429;28;20519;-66
2022/01/09 12:48:51;;;;;;;16.17;9.73;;;5.10;99.90;;;;;;5076664;28;20352;-66
2022/01/09 12:51:16;;;;;;;14.87;9.60;;;5.10;99.90;;;;;;5076754;28;20529;-66
2022/01/09 12:53:50;;;;;;;15.73;9.67;;;5.10;99.90;;;;;;5075086;28;20209;-66
2022/01/09 12:56:20;;;;;;;12.90;9.50;;;5.20;99.90;;;;;;5077001;28;20154;-66
2022/01/09 12:58:48;;;;;;;16.33;9.67;;;5.20;99.90;;;;;;5075858;28;20177;-66